createdAt,value
2022-10-16T00:01:44.953Z,12.80
2022-10-16T00:04:13.058Z,12.80
2022-10-16T00:06:41.715Z,12.80
2022-10-16T00:09:10.057Z,12.80
2022-10-16T00:11:41.724Z,12.80
2022-10-16T00:14:13.602Z,12.80
2022-10-16T00:16:43.846Z,12.70
2022-10-16T00:19:13.323Z,12.70
2022-10-16T00:21:41.801Z,12.70
2022-10-16T00:24:12.432Z,12.70
2022-10-16T00:26:41.544Z,12.70
2022-10-16T00:29:10.331Z,12.70
2022-10-16T00:31:39.023Z,12.70
2022-10-16T00:34:08.381Z,12.60
2022-10-16T00:36:36.381Z,12.60
2022-10-16T00:39:05.589Z,12.50
2022-10-16T00:41:34.422Z,12.70
2022-10-16T00:44:05.803Z,12.80
2022-10-16T00:46:42.839Z,12.80
2022-10-16T00:49:16.526Z,12.90
2022-10-16T00:51:48.469Z,13.00
2022-10-16T00:54:23.021Z,13.10
2022-10-16T00:56:53.054Z,13.10
2022-10-16T00:59:26.605Z,13.20
2022-10-16T01:01:55.397Z,13.30
2022-10-16T01:04:27.688Z,13.20
2022-10-16T01:07:11.851Z,13.20
2022-10-16T01:09:54.478Z,13.30
2022-10-16T01:12:38.434Z,13.40
2022-10-16T01:15:16.742Z,13.40
2022-10-16T01:17:53.742Z,13.40
2022-10-16T01:20:32.094Z,13.40
2022-10-16T01:23:16.655Z,13.40
2022-10-16T01:26:20.013Z,13.40
2022-10-16T01:28:57.195Z,13.40
2022-10-16T01:31:31.174Z,13.40
2022-10-16T01:34:07.251Z,13.50
2022-10-16T01:36:42.070Z,13.40
2022-10-16T01:39:13.685Z,13.40
2022-10-16T01:41:48.558Z,13.40
2022-10-16T01:44:24.160Z,13.40
2022-10-16T01:46:55.103Z,13.40
2022-10-16T01:49:27.905Z,13.50
2022-10-16T01:52:02.441Z,13.60
2022-10-16T01:54:34.724Z,13.60
2022-10-16T01:57:07.840Z,13.60
2022-10-16T01:59:44.324Z,13.60
2022-10-16T02:02:15.009Z,13.60
2022-10-16T02:04:50.466Z,13.70
2022-10-16T02:07:18.762Z,13.70
2022-10-16T02:09:47.069Z,13.80
2022-10-16T02:12:25.990Z,13.80
2022-10-16T02:14:56.111Z,13.80
2022-10-16T02:17:24.672Z,13.90
2022-10-16T02:19:58.677Z,13.90
2022-10-16T02:22:31.950Z,13.90
2022-10-16T02:25:06.794Z,13.90
2022-10-16T02:27:43.607Z,13.90
2022-10-16T02:30:21.614Z,13.90
2022-10-16T02:32:52.626Z,14.00
2022-10-16T02:35:25.113Z,14.00
2022-10-16T02:37:54.465Z,14.10
2022-10-16T02:40:25.343Z,14.20
2022-10-16T02:42:56.411Z,14.10
2022-10-16T02:45:26.454Z,14.10
2022-10-16T02:47:54.499Z,14.20
2022-10-16T02:50:23.053Z,14.20
2022-10-16T02:52:51.141Z,14.20
2022-10-16T02:55:19.358Z,14.30
2022-10-16T02:57:47.440Z,14.30
2022-10-16T03:00:19.041Z,14.40
2022-10-16T03:02:48.608Z,14.30
2022-10-16T03:05:17.123Z,14.40
2022-10-16T03:07:45.235Z,14.40
2022-10-16T03:10:13.298Z,14.40
2022-10-16T03:12:41.280Z,14.40
2022-10-16T03:15:10.763Z,14.30
2022-10-16T03:17:38.816Z,14.30
2022-10-16T03:20:09.555Z,14.30
2022-10-16T03:22:37.584Z,14.30
2022-10-16T03:25:06.874Z,14.30
2022-10-16T03:27:34.888Z,14.20
2022-10-16T03:30:02.892Z,14.10
2022-10-16T03:32:31.005Z,14.10
2022-10-16T03:34:59.026Z,14.10
2022-10-16T03:37:29.194Z,14.10
2022-10-16T03:39:57.416Z,14.10
2022-10-16T03:42:25.439Z,14.10
2022-10-16T03:44:53.419Z,14.20
2022-10-16T03:47:22.818Z,14.20
2022-10-16T03:49:51.080Z,14.30
2022-10-16T03:54:53.765Z,14.40
2022-10-16T03:57:22.142Z,14.50
2022-10-16T03:59:50.163Z,14.60
2022-10-16T04:02:18.700Z,14.60
2022-10-16T04:04:46.755Z,14.60
2022-10-16T04:07:14.763Z,14.70
2022-10-16T04:09:42.935Z,14.60
2022-10-16T04:12:12.338Z,14.70
2022-10-16T04:14:40.369Z,14.70
2022-10-16T04:17:08.397Z,14.60
2022-10-16T04:19:36.402Z,14.70
2022-10-16T04:22:04.836Z,14.60
2022-10-16T04:24:32.825Z,14.60
2022-10-16T04:27:00.944Z,14.50
2022-10-16T04:29:30.298Z,14.50
2022-10-16T04:31:58.305Z,14.60
2022-10-16T04:34:26.466Z,14.50
2022-10-16T04:36:54.489Z,14.50
2022-10-16T04:39:22.848Z,14.40
2022-10-16T04:41:50.901Z,14.50
2022-10-16T04:44:18.882Z,14.40
2022-10-16T04:46:48.217Z,14.50
2022-10-16T04:49:16.246Z,14.50
2022-10-16T04:51:44.356Z,14.40
2022-10-16T04:54:12.847Z,14.40
2022-10-16T04:56:47.551Z,14.50
2022-10-16T04:59:16.444Z,14.30
2022-10-16T05:01:44.903Z,14.40
2022-10-16T05:04:16.035Z,14.30
2022-10-16T05:06:44.837Z,14.20
2022-10-16T05:09:12.889Z,14.20
2022-10-16T05:11:40.963Z,14.20
2022-10-16T05:14:09.026Z,14.20
2022-10-16T05:16:37.049Z,14.10
2022-10-16T05:19:26.388Z,14.10
2022-10-16T05:21:54.502Z,14.20
2022-10-16T05:24:22.544Z,14.20
2022-10-16T05:26:50.566Z,14.20
2022-10-16T05:29:18.607Z,14.10
2022-10-16T05:31:46.666Z,14.00
2022-10-16T05:34:14.901Z,14.00
2022-10-16T05:36:42.929Z,14.10
2022-10-16T05:39:12.278Z,14.00
2022-10-16T05:41:40.324Z,14.10
2022-10-16T05:44:08.951Z,14.10
2022-10-16T05:46:36.964Z,14.10
2022-10-16T05:49:05.438Z,14.20
2022-10-16T05:51:33.440Z,14.30
2022-10-16T05:54:01.478Z,14.40
2022-10-16T05:56:30.906Z,14.30
2022-10-16T05:58:58.918Z,14.30
2022-10-16T06:01:27.033Z,14.30
2022-10-16T06:03:55.631Z,14.40
2022-10-16T06:06:26.742Z,14.50
2022-10-16T06:08:56.435Z,14.60
2022-10-16T06:11:27.412Z,14.60
2022-10-16T06:13:59.472Z,14.60
2022-10-16T06:16:28.648Z,14.70
2022-10-16T06:19:00.133Z,14.80
2022-10-16T06:21:30.150Z,14.80
2022-10-16T06:24:00.102Z,14.90
2022-10-16T06:26:31.564Z,14.90
2022-10-16T06:29:02.104Z,14.90
2022-10-16T06:31:32.601Z,14.90
2022-10-16T06:34:01.306Z,15.00
2022-10-16T06:36:29.841Z,15.00
2022-10-16T06:38:58.382Z,15.00
2022-10-16T06:41:26.430Z,15.10
2022-10-16T06:43:54.519Z,15.10
2022-10-16T06:46:27.477Z,15.00
2022-10-16T06:48:55.672Z,15.10
2022-10-16T06:51:26.188Z,15.00
2022-10-16T06:54:05.001Z,15.00
2022-10-16T06:56:35.625Z,15.10
2022-10-16T06:59:04.412Z,14.90
2022-10-16T07:01:35.056Z,14.80
2022-10-16T07:04:04.176Z,14.80
2022-10-16T07:06:35.817Z,14.90
2022-10-16T07:09:07.423Z,14.80
2022-10-16T07:11:36.224Z,14.90
2022-10-16T07:14:04.557Z,15.00
2022-10-16T07:16:35.156Z,15.00
2022-10-16T07:19:04.667Z,15.10
2022-10-16T07:21:36.971Z,15.00
2022-10-16T07:24:08.023Z,15.10
2022-10-16T07:26:40.061Z,15.10
2022-10-16T07:29:09.163Z,15.10
2022-10-16T07:31:39.427Z,15.30
2022-10-16T07:34:07.777Z,15.30
2022-10-16T07:36:36.118Z,15.40
2022-10-16T07:39:04.642Z,15.50
2022-10-16T07:41:33.769Z,15.50
2022-10-16T07:44:01.892Z,15.60
2022-10-16T07:46:34.739Z,15.80
2022-10-16T07:49:05.016Z,16.00
2022-10-16T07:51:33.107Z,16.10
2022-10-16T07:54:01.090Z,16.20
2022-10-16T07:56:29.126Z,16.20
2022-10-16T07:58:57.438Z,16.20
2022-10-16T08:01:25.683Z,16.20
2022-10-16T08:03:54.927Z,16.10
2022-10-16T08:06:27.984Z,16.30
2022-10-16T08:08:58.120Z,16.50
2022-10-16T08:11:26.124Z,16.60
2022-10-16T08:13:54.208Z,16.60
2022-10-16T08:16:22.638Z,16.70
2022-10-16T08:18:52.222Z,17.00
2022-10-16T08:21:24.825Z,17.20
2022-10-16T08:23:57.313Z,17.30
2022-10-16T08:26:28.310Z,17.40
2022-10-16T08:28:57.453Z,17.50
2022-10-16T08:31:27.246Z,17.60
2022-10-16T08:33:56.569Z,17.80
2022-10-16T08:36:25.938Z,17.80
2022-10-16T08:38:55.562Z,17.70
2022-10-16T08:41:53.203Z,17.90
2022-10-16T08:45:00.494Z,17.90
2022-10-16T08:47:47.426Z,17.80
2022-10-16T08:50:26.404Z,17.90
2022-10-16T08:52:57.351Z,17.90
2022-10-16T08:55:39.351Z,18.00
2022-10-16T08:58:15.717Z,18.10
2022-10-16T09:00:48.662Z,18.20
2022-10-16T09:03:33.876Z,18.20
2022-10-16T09:06:33.021Z,18.50
2022-10-16T09:09:29.404Z,18.50
2022-10-16T09:12:07.969Z,18.50
2022-10-16T09:14:58.288Z,18.60
2022-10-16T09:17:42.964Z,18.70
2022-10-16T09:20:36.844Z,18.70
2022-10-16T09:23:19.005Z,18.40
2022-10-16T09:25:51.447Z,18.30
2022-10-16T09:28:21.051Z,18.30
2022-10-16T09:30:50.889Z,18.20
2022-10-16T09:33:24.145Z,18.40
2022-10-16T09:35:55.009Z,18.40
2022-10-16T09:38:25.979Z,18.30
2022-10-16T09:41:02.387Z,18.40
2022-10-16T09:43:41.164Z,18.60
2022-10-16T09:46:21.749Z,18.50
2022-10-16T09:48:53.685Z,18.60
2022-10-16T09:51:26.465Z,18.90
2022-10-16T09:54:01.126Z,18.90
2022-10-16T09:56:34.314Z,19.00
2022-10-16T09:59:10.833Z,18.80
2022-10-16T10:01:41.833Z,18.80
2022-10-16T10:04:10.777Z,18.80
2022-10-16T10:06:45.443Z,18.80
2022-10-16T10:09:23.515Z,18.70
2022-10-16T10:11:58.155Z,18.60
2022-10-16T10:14:34.348Z,18.60
2022-10-16T10:17:18.002Z,18.80
2022-10-16T10:19:53.911Z,18.90
2022-10-16T10:22:33.336Z,19.10
2022-10-16T10:25:28.655Z,19.00
2022-10-16T10:28:48.012Z,18.80
2022-10-16T10:31:24.306Z,18.70
2022-10-16T10:34:04.574Z,18.90
2022-10-16T10:36:38.865Z,18.80
2022-10-16T10:39:13.977Z,18.90
2022-10-16T10:42:09.161Z,18.90
2022-10-16T10:45:19.674Z,18.90
2022-10-16T10:48:06.012Z,18.90
2022-10-16T10:50:43.749Z,19.00
2022-10-16T10:53:26.832Z,19.10
2022-10-16T10:56:06.506Z,19.00
2022-10-16T10:58:59.390Z,19.10
2022-10-16T11:01:43.370Z,19.10
2022-10-16T11:04:57.913Z,19.10
2022-10-16T11:07:32.743Z,19.10
2022-10-16T11:10:07.083Z,19.30
2022-10-16T11:12:42.471Z,19.40
2022-10-16T11:15:19.406Z,19.70
2022-10-16T11:17:56.350Z,19.70
2022-10-16T11:20:28.682Z,19.60
2022-10-16T11:23:04.158Z,19.70
2022-10-16T11:25:34.574Z,19.60
2022-10-16T11:28:10.643Z,19.70
2022-10-16T11:30:51.348Z,19.70
2022-10-16T11:33:34.980Z,19.80
2022-10-16T11:36:13.801Z,19.80
2022-10-16T11:38:52.005Z,19.90
2022-10-16T11:41:30.253Z,19.90
2022-10-16T11:44:22.746Z,19.80
2022-10-16T11:47:28.600Z,19.80
2022-10-16T11:50:02.290Z,19.90
2022-10-16T11:52:38.528Z,20.10
2022-10-16T11:55:16.682Z,20.20
2022-10-16T11:57:51.366Z,20.00
2022-10-16T12:00:26.635Z,19.60
2022-10-16T12:03:07.504Z,19.60
2022-10-16T12:05:57.817Z,19.70
2022-10-16T12:08:26.732Z,19.90
2022-10-16T12:10:56.266Z,20.10
2022-10-16T12:13:34.198Z,20.30
2022-10-16T12:16:22.979Z,20.50
2022-10-16T12:19:04.419Z,20.50
2022-10-16T12:21:34.236Z,20.60
2022-10-16T12:24:06.173Z,20.40
2022-10-16T12:26:38.872Z,20.40
2022-10-16T12:29:30.294Z,20.40
2022-10-16T12:31:58.765Z,20.30
2022-10-16T12:34:34.565Z,20.20
2022-10-16T12:37:17.343Z,20.00
2022-10-16T12:39:45.690Z,20.00
2022-10-16T12:42:34.861Z,19.90
2022-10-16T12:45:15.098Z,19.80
2022-10-16T12:47:54.622Z,19.60
2022-10-16T12:50:31.597Z,19.60
2022-10-16T12:53:03.645Z,19.80
2022-10-16T12:55:50.764Z,19.80
2022-10-16T12:58:41.562Z,19.80
2022-10-16T13:01:29.138Z,20.20
2022-10-16T13:04:34.576Z,20.30
2022-10-16T13:07:29.101Z,20.60
2022-10-16T13:10:13.974Z,20.60
2022-10-16T13:13:18.376Z,21.00
2022-10-16T13:16:14.047Z,21.50
2022-10-16T13:19:02.338Z,22.20
2022-10-16T13:21:46.275Z,22.40
2022-10-16T13:24:45.900Z,22.10
2022-10-16T13:27:31.563Z,22.30
2022-10-16T13:30:14.811Z,22.40
2022-10-16T13:32:48.643Z,23.10
2022-10-16T13:35:30.010Z,23.50
2022-10-16T13:38:14.823Z,23.40
2022-10-16T13:40:56.025Z,23.70
2022-10-16T13:43:31.324Z,23.10
2022-10-16T13:46:03.158Z,23.40
2022-10-16T13:48:32.499Z,23.50
2022-10-16T13:51:15.567Z,23.30
2022-10-16T13:53:45.066Z,23.50
2022-10-16T13:56:16.637Z,23.90
2022-10-16T13:58:46.537Z,24.30
2022-10-16T14:01:21.404Z,24.50
2022-10-16T14:03:51.741Z,24.20
2022-10-16T14:06:23.701Z,24.20
2022-10-16T14:09:01.439Z,24.10
2022-10-16T14:11:30.746Z,24.50
2022-10-16T14:14:00.840Z,24.50
2022-10-16T14:16:33.501Z,24.20
2022-10-16T14:19:07.434Z,23.50
2022-10-16T14:21:36.722Z,23.80
2022-10-16T14:24:14.196Z,24.00
2022-10-16T14:26:50.462Z,24.00
2022-10-16T14:29:22.915Z,23.90
2022-10-16T14:31:59.387Z,23.70
2022-10-16T14:34:33.178Z,23.70
2022-10-16T14:39:42.131Z,23.50
2022-10-16T14:42:20.180Z,23.30
2022-10-16T14:44:51.744Z,22.70
2022-10-16T14:47:26.368Z,21.80
2022-10-16T14:49:59.241Z,21.30
2022-10-16T14:52:27.660Z,21.10
2022-10-16T14:54:57.411Z,20.70
2022-10-16T14:57:29.849Z,20.50
2022-10-16T14:59:59.585Z,20.30
2022-10-16T15:02:32.062Z,20.20
2022-10-16T15:05:12.280Z,20.10
2022-10-16T15:07:40.287Z,20.10
2022-10-16T15:10:08.829Z,19.80
2022-10-16T15:12:36.878Z,19.70
2022-10-16T15:15:30.422Z,19.70
2022-10-16T15:18:01.670Z,19.60
2022-10-16T15:20:32.172Z,19.50
2022-10-16T15:23:00.169Z,19.40
2022-10-16T15:25:35.886Z,19.30
2022-10-16T15:28:06.493Z,19.20
2022-10-16T15:30:36.993Z,19.10
2022-10-16T15:33:07.109Z,19.10
2022-10-16T15:35:35.383Z,18.90
2022-10-16T15:38:03.491Z,18.90
2022-10-16T15:40:31.688Z,18.80
2022-10-16T15:42:59.737Z,18.60
2022-10-16T15:45:27.832Z,18.50
2022-10-16T15:47:57.363Z,18.40
2022-10-16T15:50:25.778Z,18.30
2022-10-16T15:52:53.807Z,18.20
2022-10-16T15:55:22.103Z,18.00
2022-10-16T15:57:50.183Z,18.00
2022-10-16T16:00:22.905Z,17.80
2022-10-16T16:02:56.496Z,17.70
2022-10-16T16:05:25.098Z,17.60
2022-10-16T16:07:53.693Z,17.20
2022-10-16T16:10:22.781Z,17.30
2022-10-16T16:12:53.500Z,17.20
2022-10-16T16:15:23.221Z,17.00
2022-10-16T16:17:51.286Z,16.90
2022-10-16T16:20:21.057Z,16.90
2022-10-16T16:22:49.085Z,16.70
2022-10-16T16:25:17.282Z,16.60
2022-10-16T16:27:45.419Z,16.50
2022-10-16T16:30:18.288Z,16.40
2022-10-16T16:32:48.086Z,16.30
2022-10-16T16:35:16.229Z,16.30
2022-10-16T16:37:45.617Z,16.20
2022-10-16T16:40:13.807Z,16.10
2022-10-16T16:42:41.958Z,16.10
2022-10-16T16:45:11.165Z,16.00
2022-10-16T16:47:40.120Z,15.90
2022-10-16T16:50:09.071Z,15.90
2022-10-16T16:52:37.724Z,15.80
2022-10-16T16:55:07.944Z,15.50
2022-10-16T16:57:35.959Z,15.60
2022-10-16T17:00:05.439Z,15.50
2022-10-16T17:02:33.841Z,15.40
2022-10-16T17:05:02.033Z,15.40
2022-10-16T17:07:35.451Z,15.30
2022-10-16T17:10:04.035Z,15.30
2022-10-16T17:12:33.464Z,15.20
2022-10-16T17:15:01.568Z,15.20
2022-10-16T17:17:30.191Z,15.20
2022-10-16T17:19:58.435Z,15.20
2022-10-16T17:22:26.717Z,15.20
2022-10-16T17:24:54.943Z,15.20
2022-10-16T17:27:23.720Z,15.20
2022-10-16T17:29:54.212Z,15.10
2022-10-16T17:32:23.674Z,15.20
2022-10-16T17:34:51.928Z,15.10
2022-10-16T17:37:20.222Z,15.00
2022-10-16T17:39:52.984Z,14.90
2022-10-16T17:42:21.140Z,14.80
2022-10-16T17:44:49.157Z,14.80
2022-10-16T17:47:18.844Z,14.80
2022-10-16T17:49:46.889Z,14.80
2022-10-16T17:52:15.200Z,14.80
2022-10-16T17:54:44.388Z,14.80
2022-10-16T17:57:12.466Z,14.70
2022-10-16T17:59:40.471Z,14.70
2022-10-16T18:02:10.341Z,14.70
2022-10-16T18:04:39.774Z,14.60
2022-10-16T18:07:07.938Z,14.70
2022-10-16T18:09:42.476Z,14.70
2022-10-16T18:12:24.100Z,14.70
2022-10-16T18:14:55.651Z,14.50
2022-10-16T18:17:23.723Z,14.40
2022-10-16T18:19:53.106Z,14.30
2022-10-16T18:22:21.091Z,14.40
2022-10-16T18:24:49.088Z,14.40
2022-10-16T18:27:17.123Z,14.40
2022-10-16T18:29:45.372Z,14.40
2022-10-16T18:32:13.545Z,14.40
2022-10-16T18:34:41.644Z,14.30
2022-10-16T18:37:12.468Z,14.10
2022-10-16T18:39:40.462Z,14.10
2022-10-16T18:42:08.783Z,14.00
2022-10-16T18:44:37.337Z,13.90
2022-10-16T18:47:05.343Z,14.00
2022-10-16T18:49:33.412Z,14.10
2022-10-16T18:52:03.166Z,14.00
2022-10-16T18:54:32.958Z,13.80
2022-10-16T18:57:01.003Z,13.70
2022-10-16T18:59:30.091Z,13.60
2022-10-16T19:01:58.243Z,13.60
2022-10-16T19:04:26.637Z,13.70
2022-10-16T19:06:55.080Z,13.80
2022-10-16T19:09:25.674Z,13.80
2022-10-16T19:14:53.851Z,13.90
2022-10-16T19:17:22.060Z,13.70
2022-10-16T19:19:50.306Z,13.70
2022-10-16T19:22:30.419Z,13.70
2022-10-16T19:24:59.062Z,13.70
2022-10-16T19:27:28.807Z,13.70
2022-10-16T19:29:57.193Z,13.60
2022-10-16T19:32:26.116Z,13.70
2022-10-16T19:34:54.467Z,13.60
2022-10-16T19:37:25.826Z,13.50
2022-10-16T19:39:54.088Z,13.40
2022-10-16T19:42:22.105Z,13.30
2022-10-16T19:44:52.084Z,13.20
2022-10-16T19:47:22.340Z,13.10
2022-10-16T19:49:52.483Z,13.10
2022-10-16T19:52:22.056Z,13.00
2022-10-16T19:54:50.042Z,12.80
2022-10-16T19:57:18.116Z,12.80
2022-10-16T19:59:46.130Z,12.80
2022-10-16T20:02:15.432Z,12.90
2022-10-16T20:04:43.450Z,13.10
2022-10-16T20:07:11.562Z,13.20
2022-10-16T20:09:39.600Z,13.20
2022-10-16T20:12:07.618Z,13.10
2022-10-16T20:14:35.991Z,13.10
2022-10-16T20:17:04.100Z,13.00
2022-10-16T20:19:34.137Z,12.90
2022-10-16T20:22:03.621Z,12.90
2022-10-16T20:24:31.752Z,12.80
2022-10-16T20:27:00.890Z,12.80
2022-10-16T20:29:28.958Z,12.80
2022-10-16T20:31:56.950Z,12.80
2022-10-16T20:34:25.009Z,12.70
2022-10-16T20:36:54.422Z,12.60
2022-10-16T20:39:22.500Z,12.60
2022-10-16T20:41:50.592Z,12.70
2022-10-16T20:44:18.844Z,12.80
2022-10-16T20:46:46.920Z,12.90
2022-10-16T20:49:28.259Z,13.00
2022-10-16T20:52:04.553Z,12.90
2022-10-16T20:54:32.602Z,12.80
2022-10-16T20:57:00.682Z,12.60
2022-10-16T20:59:28.787Z,12.60
2022-10-16T21:01:57.003Z,12.60
2022-10-16T21:04:25.127Z,12.60
2022-10-16T21:06:53.130Z,12.50
2022-10-16T21:09:22.505Z,12.50
2022-10-16T21:11:50.500Z,12.70
2022-10-16T21:14:18.622Z,12.90
2022-10-16T21:16:46.674Z,12.80
2022-10-16T21:19:14.757Z,12.80
2022-10-16T21:21:42.827Z,12.70
2022-10-16T21:24:13.599Z,12.70
2022-10-16T21:26:46.061Z,12.90
2022-10-16T21:29:14.464Z,13.10
2022-10-16T21:31:42.957Z,13.10
2022-10-16T21:34:11.195Z,13.10
2022-10-16T21:36:43.204Z,13.00
2022-10-16T21:39:16.646Z,13.00
2022-10-16T21:41:49.028Z,13.00
2022-10-16T21:44:20.015Z,13.00
2022-10-16T21:46:48.704Z,12.90
2022-10-16T21:49:20.300Z,12.80
2022-10-16T21:51:51.757Z,12.70
2022-10-16T21:54:23.490Z,12.70
2022-10-16T21:56:53.394Z,12.80
2022-10-16T21:59:21.757Z,12.90
2022-10-16T22:01:50.145Z,13.00
2022-10-16T22:04:18.220Z,13.20
2022-10-16T22:06:47.002Z,13.40
2022-10-16T22:09:16.105Z,13.40
2022-10-16T22:11:45.961Z,13.50
2022-10-16T22:14:18.662Z,13.50
2022-10-16T22:16:48.111Z,13.50
2022-10-16T22:19:19.645Z,13.60
2022-10-16T22:21:49.181Z,13.70
2022-10-16T22:24:17.621Z,13.90
2022-10-16T22:26:46.293Z,14.10
2022-10-16T22:29:16.697Z,14.20
2022-10-16T22:31:45.312Z,14.20
2022-10-16T22:34:15.049Z,14.10
2022-10-16T22:36:43.087Z,14.00
2022-10-16T22:39:11.578Z,14.00
2022-10-16T22:41:39.641Z,14.00
2022-10-16T22:44:07.669Z,14.00
2022-10-16T22:46:37.016Z,14.00
2022-10-16T22:49:05.016Z,13.90
2022-10-16T22:51:33.917Z,13.90
2022-10-16T22:54:01.917Z,13.90
2022-10-16T22:56:30.078Z,13.80
2022-10-16T22:58:58.084Z,13.80
2022-10-16T23:01:30.119Z,13.80
2022-10-16T23:04:01.202Z,13.70
2022-10-16T23:06:31.049Z,13.70
2022-10-16T23:09:02.100Z,13.80
2022-10-16T23:11:31.919Z,13.90
2022-10-16T23:13:59.974Z,13.90
2022-10-16T23:16:27.983Z,13.80
2022-10-16T23:18:56.232Z,13.70
2022-10-16T23:21:26.765Z,13.60
2022-10-16T23:23:55.606Z,13.50
2022-10-16T23:26:27.802Z,13.50
2022-10-16T23:28:59.370Z,13.60
2022-10-16T23:31:28.878Z,13.60
2022-10-16T23:33:58.111Z,13.60
2022-10-16T23:36:27.643Z,13.70
2022-10-16T23:38:56.500Z,13.70
2022-10-16T23:41:24.556Z,13.60
2022-10-16T23:43:52.589Z,13.60
2022-10-16T23:46:20.841Z,13.60
2022-10-16T23:48:48.930Z,13.70
2022-10-16T23:51:17.272Z,13.60
2022-10-16T23:53:46.843Z,13.50
2022-10-16T23:56:15.530Z,13.60
2022-10-16T23:58:43.869Z,13.60
